Terminal Aerodrome Forecast
Issued by NWS St Louis, MO

Home | Current Version | Previous Version | Text Only | Print | Product List | Glossary On
Versions: 1 2 3 4 5 6 7 8 9 10 11 12 13
281
FTUS43 KLSX 032340
TAFCOU
TAF
KCOU 032340Z 0400/0424 28007KT P6SM SCT080
     FM040800 25012KT P6SM BKN060
     FM041000 29012G18KT P6SM SCT070
     FM041400 34016G24KT P6SM SKC=

USA.gov is the U.S. government's official web portal to all federal, state and local government web resources and services.